• Join FlightAware (Why Join?)
  • Login
  • US Flag 
12:29AM EDT


 

Airport Tracker/Info


-or-


 

Live Flight TrackerFlight Track Log ✈ CSC8704 ✈ 14-07-2014 ✈ ZGSZ / SZX - ZUUU / CTU

Flight Track Log - Related Links

Times and Time Zones

All times are in EDT time to prevent confusion due to time zone crossing. See the CSC8704 flight status page for this flight to view local times or setup timezone preferences in your user account.

Time Position Orientation Groundspeed Altitude Reporting Facility
EDT Latitude Longitude Course Direction KTS MPH feet Rate Location/Type
07:18AM 22.5168 113.8795 136° Southeast 252 290 5,600  Level FlightAware ADS-B (VHSK)
07:18AM 22.5064 113.9080 136° Southeast 252 290 6,600 2,580 Climbing FlightAware ADS-B (VHSK)
07:21AM 22.6631 113.7340 314° West  Level Estimated
07:22AM 22.7292 113.6603 314° West  Level Estimated
07:23AM 22.7954 113.5866 314° West  Level Estimated
07:24AM 22.8615 113.5128 314° West  Level Estimated
07:25AM 22.9275 113.4389 314° West  Level Estimated
07:26AM 22.9935 113.3650 314° West  Level Estimated
07:27AM 23.0595 113.2909 314° West  Level Estimated
07:28AM 23.1255 113.2168 314° West  Level Estimated
07:29AM 23.1914 113.1427 314° West  Level Estimated
07:30AM 23.2573 113.0684 314° West  Level Estimated
07:31AM 23.3231 112.9941 314° West  Level Estimated
07:32AM 23.3889 112.9197 314° West  Level Estimated
07:33AM 23.4547 112.8453 314° West  Level Estimated
07:34AM 23.5205 112.7707 314° West  Level Estimated
07:35AM 23.5862 112.6961 314° West  Level Estimated
07:36AM 23.6518 112.6215 314° West  Level Estimated
07:37AM 23.7175 112.5467 314° West  Level Estimated
07:38AM 23.7831 112.4719 314° West  Level Estimated
07:39AM 23.8486 112.3969 314° West  Level Estimated
07:40AM 23.9142 112.3220 314° West  Level Estimated
07:41AM 23.9797 112.2469 314° West  Level Estimated
07:42AM 24.0451 112.1718 314° West  Level Estimated
07:43AM 24.1105 112.0965 314° West  Level Estimated
07:44AM 24.1759 112.0213 314° West  Level Estimated
07:45AM 24.2412 111.9459 314° West  Level Estimated
07:46AM 24.3066 111.8704 314° West  Level Estimated
07:47AM 24.3718 111.7949 314° West  Level Estimated
07:48AM 24.4371 111.7193 313° West  Level Estimated
07:49AM 24.5023 111.6436 313° West  Level Estimated
07:50AM 24.5674 111.5679 313° West  Level Estimated
07:51AM 24.6325 111.4920 313° West  Level Estimated
07:52AM 24.6976 111.4161 313° West  Level Estimated
07:53AM 24.7626 111.3401 313° West  Level Estimated
07:54AM 24.8277 111.2641 313° West  Level Estimated
07:55AM 24.8926 111.1879 313° West  Level Estimated
07:56AM 24.9576 111.1117 313° West  Level Estimated
07:57AM 25.0224 111.0353 313° West  Level Estimated
07:58AM 25.0873 110.9589 313° West  Level Estimated
07:59AM 25.1521 110.8825 313° West  Level Estimated
08:00AM 25.2169 110.8059 313° West  Level Estimated
08:01AM 25.2816 110.7293 313° West  Level Estimated
08:02AM 25.3463 110.6526 313° West  Level Estimated
08:03AM 25.4109 110.5758 313° West  Level Estimated
08:04AM 25.4755 110.4989 313° West  Level Estimated
08:05AM 25.5401 110.4219 313° West  Level Estimated
08:06AM 25.6047 110.3448 313° West  Level Estimated
08:07AM 25.6691 110.2677 313° West  Level Estimated
08:08AM 25.7336 110.1905 313° West  Level Estimated
08:09AM 25.7980 110.1132 313° West  Level Estimated
08:10AM 25.8624 110.0358 313° West  Level Estimated
08:11AM 25.9267 109.9583 313° West  Level Estimated
08:12AM 25.9910 109.8808 313° West  Level Estimated
08:13AM 26.0552 109.8031 313° West  Level Estimated
08:14AM 26.1194 109.7254 313° West  Level Estimated
08:15AM 26.1836 109.6476 313° West  Level Estimated
08:16AM 26.2477 109.5697 313° West  Level Estimated
08:17AM 26.3118 109.4917 313° West  Level Estimated
08:18AM 26.3758 109.4137 312° West  Level Estimated
08:19AM 26.4398 109.3355 312° West  Level Estimated
08:20AM 26.5038 109.2573 312° West  Level Estimated
08:21AM 26.5677 109.1789 312° West  Level Estimated
08:22AM 26.6315 109.1005 312° West  Level Estimated
08:23AM 26.6954 109.0220 312° West  Level Estimated
08:24AM 26.7591 108.9434 312° West  Level Estimated
08:25AM 26.8229 108.8647 312° West  Level Estimated
08:26AM 26.8866 108.7860 312° West  Level Estimated
08:27AM 26.9502 108.7071 312° West  Level Estimated
08:28AM 27.0138 108.6282 312° West  Level Estimated
08:29AM 27.0774 108.5491 312° West  Level Estimated
08:30AM 27.1409 108.4700 312° West  Level Estimated
08:31AM 27.2044 108.3908 312° West  Level Estimated
08:32AM 27.2678 108.3115 312° West  Level Estimated
08:33AM 27.3312 108.2321 312° West  Level Estimated
08:34AM 27.3945 108.1526 312° West  Level Estimated
08:35AM 27.4578 108.0730 312° West  Level Estimated
08:36AM 27.5211 107.9933 312° West  Level Estimated
08:37AM 27.5843 107.9136 312° West  Level Estimated
08:38AM 27.6474 107.8337 312° West  Level Estimated
08:39AM 27.7105 107.7538 312° West  Level Estimated
08:40AM 27.7736 107.6738 312° West  Level Estimated
08:41AM 27.8366 107.5936 312° West  Level Estimated
08:42AM 27.8996 107.5134 312° West  Level Estimated
08:43AM 27.9625 107.4331 312° West  Level Estimated
08:44AM 28.0254 107.3527 312° West  Level Estimated
08:45AM 28.0882 107.2722 312° West  Level Estimated
08:46AM 28.1510 107.1916 311° West  Level Estimated
08:47AM 28.2137 107.1109 311° West  Level Estimated
08:48AM 28.2764 107.0301 311° West  Level Estimated
08:49AM 28.3391 106.9492 311° West  Level Estimated
08:50AM 28.4017 106.8682 311° West  Level Estimated
08:51AM 28.4642 106.7871 311° West  Level Estimated
08:52AM 28.5267 106.7060 311° West  Level Estimated
08:53AM 28.5892 106.6247 311° West  Level Estimated
08:54AM 28.6516 106.5433 311° West  Level Estimated
08:55AM 28.7139 106.4619 311° West  Level Estimated
08:56AM 28.7762 106.3803 311° West  Level Estimated
08:57AM 28.8385 106.2987 311° West  Level Estimated
08:58AM 28.9007 106.2169 311° West  Level Estimated
08:59AM 28.9628 106.1351 311° West  Level Estimated
09:00AM 29.0249 106.0531 311° West  Level Estimated
09:01AM 29.0870 105.9711 311° West  Level Estimated
09:02AM 29.1490 105.8889 311° West  Level Estimated
09:03AM 29.2110 105.8067 311° West  Level Estimated
09:04AM 29.2729 105.7243 311° West  Level Estimated
09:05AM 29.3347 105.6419 311° West  Level Estimated
09:06AM 29.3965 105.5593 311° West  Level Estimated
09:07AM 29.4583 105.4767 311° West  Level Estimated
09:08AM 29.5200 105.3939 311° West  Level Estimated
09:09AM 29.5816 105.3111 311° West  Level Estimated
09:10AM 29.6432 105.2281 311° West  Level Estimated
09:11AM 29.7048 105.1451 310° West  Level Estimated
09:12AM 29.7663 105.0620 310° West  Level Estimated
09:13AM 29.8277 104.9787 310° West  Level Estimated
09:14AM 29.8891 104.8953 310° West  Level Estimated
09:15AM 29.9505 104.8119 310° West  Level Estimated
09:16AM 30.0117 104.7283 310° West  Level Estimated
09:17AM 30.0730 104.6447 310° West  Level Estimated
09:18AM 30.1342 104.5609 310° West  Level Estimated
09:19AM 30.1953 104.4770 310° West  Level Estimated
09:20AM 30.2564 104.3930 310° West  Level Estimated
09:21AM 30.3174 104.3090 310° West  Level Estimated
09:22AM 30.3783 104.2248 310° West  Level Estimated
09:23AM 30.4393 104.1405 310° West  Level Estimated
09:24AM 30.5001 104.0561 310° West  Level Estimated
09:25AM 30.5609 103.9716 310° West  Level Estimated
09:26AM 30.5785 103.9471 310° West  Level Estimated
09:27AM 30.5785 103.9471 North  Level Estimated
09:28AM 30.5785 103.9471 North  Level Estimated
09:29AM 30.5785 103.9471 North  Level Estimated
09:30AM 30.5785 103.9471 North  Level Estimated
09:31AM 30.5785 103.9471 North  Level Estimated
09:32AM 30.5785 103.9471 North  Level Estimated
09:33AM 30.5785 103.9471 North  Level Estimated
09:34AM 30.5785 103.9471 North  Level Estimated
09:35AM 30.5785 103.9471 North  Level Estimated
09:36AM 30.5785 103.9471 North  Level Estimated